Flight ASX315X

  • Submitted By: Krzysztof H. Blaszkow
  • Departure Airport: Szczecin (EPSC)
  • Arrival Airport: Gdansk im. Lecha Walesy (EPGD)
  • Aircraft: BE58 (SP-MVL)
  • Flight Time: 01.17.49
  • Date Submitted: 01/25/2017
  • Status: Accepted
Flight Details
Gross Revenue:
(5 load / € 55.00 per unit
€ 275.00
Fuel Cost:
(73.9356 fuel used @ 0.45 / unit)
€ 33.27

Additional Log Information:

View Log

[21:53] - Carenado BARON B58 METAL BLUE
[21:53] - Flight ASX315X is ready to depart EPSC with a final destination of EPGD.
[21:53] - Parking Brake Applied
[21:53] - Navigation Lights ON
[21:53] - Instrument Lights ON
[21:53] - Recognition Lights ON
[21:53] - Logo Lights ON
[21:53] - Boarding
[21:53] - ADF1 - 284.0
[21:53] - ADF2 - 240.0
[21:53] - NAV1 - 110.50
[21:53] - NAV2 - 116.10
[21:53] - COM1 - 122.80
[21:53] - COM2 - 123.45
[21:53] - Transponder - 2000
[21:59] - NAV1 - 114.75
[22:00] - Engine 1 Started
[22:00] - Engine 2 Started
[22:03] - Beacon Light ON 3AGL
[22:03] - Wing Lights ON 3AGL
[22:03] - Taxi Lights ON 3AGL
[22:03] - Parking Brake Released
[22:04] - Taxiing to Runway
[22:04] - Strobe Lights ON 3AGL
[22:04] - Landing Lights ON 3AGL
[22:04] - Taxi Lights OFF 3AGL
[22:05] - Taking Off with 5 passengers on board
[22:05] - Take off at 93kts, with a pitch of 4deg and 264lbs of fuel on board
[22:05] - Wind Heading 272 | Wind Speed 5kts | Temperature 0 deg C
[22:05] - METAR Departure: EPSC 242130Z 26005KT 2100 -RASN BR BKN003 OVC004 00/M00 Q1029 R13/51//95

[22:05] - Gear up at 325AGL
[22:05] - Climbing to TOC
[22:09] - AutoPilot Engaged at 6185AGL
[22:11] - Landing Lights OFF 8025AGL
[22:15] - TOC reached
[22:15] - Cruise started
[22:37] - NAV1 - 116.10
[22:41] - Landing Lights ON 7634AGL
[22:42] - TOD reached
[22:42] - Descending to destination
[22:46] - Landing Shortly
[22:53] - NAV1 - 110.30
[23:00] - Flaps to position 1 at 2283ft and 159kts
[23:00] - Gear down at 1956AGL
[23:02] - AutoPilot Disengaged at 912AGL
[23:03] - Landed at -248fpm. With 104lbs of fuel onboard and a pitch angle of 0deg.
[23:03] - Wind Heading 290 | Wind Speed 5kts | Temperature 1 deg C
[23:03] - METAR Arrival: EPGD 242230Z 29006KT 7000 OVC004 M00/M01 Q1026

[23:03] - Flaps to position 0
[23:04] - Taxiing to Gate
[23:05] - Landing Lights OFF 0AGL
[23:05] - Taxi Lights ON 0AGL
[23:05] - Strobe Lights OFF 0AGL
[23:07] - Simulator Paused
[23:07] - Simulator Un-Paused
[23:09] - Parking Brake Applied
[23:09] - Arrived safely at EPGD. We hope you enjoyed your flight!
[23:09] - Taxi Lights OFF 0AGL
[23:09] - Engine 1 Stopped
[23:09] - Engine 2 Stopped
[23:10] - Instrument Lights OFF 0AGL
[23:11] - Carenado BARON B58 METAL BLUE
[23:11] - MaxSim Rate: 1x
[23:11] - SiouxAcars ver: 1.0.1.2

Comments

Commenter Comment
Krzysztof H. Blaszkow twardo :/ choc nie wygladalo, mialem dac troche w 'gaz'

Route Map